sensor_id;sensor_type;location;lat;lon;timestamp;pressure;altitude;pressure_sealevel;temperature;humidity
7441;BME280;29616;51.950;8.572;2023-02-11T00:01:49;101664.97;;;6.33;100.00
7441;BME280;29616;51.950;8.572;2023-02-11T00:04:20;101665.66;;;6.36;100.00
7441;BME280;29616;51.950;8.572;2023-02-11T00:06:48;101666.38;;;6.40;100.00
7441;BME280;29616;51.950;8.572;2023-02-11T00:09:19;101662.75;;;6.39;100.00
7441;BME280;29616;51.950;8.572;2023-02-11T00:11:48;101668.56;;;6.49;100.00
7441;BME280;29616;51.950;8.572;2023-02-11T00:14:16;101650.00;;;6.41;100.00
7441;BME280;29616;51.950;8.572;2023-02-11T00:16:46;101651.09;;;6.53;100.00
7441;BME280;29616;51.950;8.572;2023-02-11T00:19:15;101659.78;;;6.59;100.00
7441;BME280;29616;51.950;8.572;2023-02-11T00:21:46;101651.97;;;6.53;100.00
7441;BME280;29616;51.950;8.572;2023-02-11T00:24:15;101637.69;;;6.50;100.00
7441;BME280;29616;51.950;8.572;2023-02-11T00:26:43;101637.69;;;6.50;100.00
7441;BME280;29616;51.950;8.572;2023-02-11T00:29:11;101658.91;;;6.59;100.00
7441;BME280;29616;51.950;8.572;2023-02-11T00:31:40;101660.66;;;6.60;100.00
7441;BME280;29616;51.950;8.572;2023-02-11T00:34:09;101671.31;;;6.63;100.00
7441;BME280;29616;51.950;8.572;2023-02-11T00:36:39;101670.66;;;6.59;100.00
7441;BME280;29616;51.950;8.572;2023-02-11T00:39:11;101665.88;;;6.63;100.00
7441;BME280;29616;51.950;8.572;2023-02-11T00:41:39;101655.22;;;6.60;100.00
7441;BME280;29616;51.950;8.572;2023-02-11T00:44:11;101643.97;;;6.66;100.00
7441;BME280;29616;51.950;8.572;2023-02-11T00:46:39;101643.84;;;6.53;100.00
7441;BME280;29616;51.950;8.572;2023-02-11T00:49:10;101543.25;;;5.94;100.00
7441;BME280;29616;51.950;8.572;2023-02-11T00:51:40;101638.94;;;6.44;100.00
7441;BME280;29616;51.950;8.572;2023-02-11T00:54:11;101648.94;;;6.44;100.00
7441;BME280;29616;51.950;8.572;2023-02-11T00:56:42;101654.00;;;6.50;100.00
7441;BME280;29616;51.950;8.572;2023-02-11T00:59:10;101656.97;;;6.45;100.00
7441;BME280;29616;51.950;8.572;2023-02-11T01:01:39;101639.56;;;6.34;100.00
7441;BME280;29616;51.950;8.572;2023-02-11T01:04:09;101644.97;;;6.34;100.00
7441;BME280;29616;51.950;8.572;2023-02-11T01:06:37;101675.91;;;6.47;100.00
7441;BME280;29616;51.950;8.572;2023-02-11T01:09:08;101669.78;;;6.43;100.00
7441;BME280;29616;51.950;8.572;2023-02-11T01:11:39;101678.72;;;6.45;100.00
7441;BME280;29616;51.950;8.572;2023-02-11T01:14:10;101679.25;;;6.52;100.00
7441;BME280;29616;51.950;8.572;2023-02-11T01:16:39;101683.00;;;6.49;100.00
7441;BME280;29616;51.950;8.572;2023-02-11T01:19:10;101681.59;;;6.42;100.00
7441;BME280;29616;51.950;8.572;2023-02-11T01:21:38;101678.19;;;6.39;100.00
7441;BME280;29616;51.950;8.572;2023-02-11T01:24:08;101679.94;;;6.40;100.00
7441;BME280;29616;51.950;8.572;2023-02-11T01:26:39;101676.88;;;6.46;100.00
7441;BME280;29616;51.950;8.572;2023-02-11T01:29:08;101664.97;;;6.33;100.00
7441;BME280;29616;51.950;8.572;2023-02-11T01:31:37;101674.16;;;6.46;100.00
7441;BME280;29616;51.950;8.572;2023-02-11T01:34:07;101664.00;;;6.34;100.00
7441;BME280;29616;51.950;8.572;2023-02-11T01:36:36;101671.34;;;6.32;100.00
7441;BME280;29616;51.950;8.572;2023-02-11T01:39:07;101653.75;;;6.23;100.00
7441;BME280;29616;51.950;8.572;2023-02-11T01:41:35;101657.00;;;6.14;100.00
7441;BME280;29616;51.950;8.572;2023-02-11T01:44:24;101646.13;;;6.30;100.00
7441;BME280;29616;51.950;8.572;2023-02-11T01:46:55;101638.06;;;6.13;100.00
7441;BME280;29616;51.950;8.572;2023-02-11T01:49:29;101636.78;;;6.20;100.00
7441;BME280;29616;51.950;8.572;2023-02-11T01:52:03;101638.69;;;6.18;100.00
7441;BME280;29616;51.950;8.572;2023-02-11T01:54:36;101630.13;;;6.25;100.00
7441;BME280;29616;51.950;8.572;2023-02-11T01:57:30;101636.50;;;6.24;100.00
7441;BME280;29616;51.950;8.572;2023-02-11T02:00:09;101626.38;;;6.12;100.00
7441;BME280;29616;51.950;8.572;2023-02-11T02:02:49;101638.63;;;6.19;100.00
7441;BME280;29616;51.950;8.572;2023-02-11T02:05:29;101629.75;;;6.16;100.00
7441;BME280;29616;51.950;8.572;2023-02-11T02:08:05;101633.53;;;6.13;100.00
7441;BME280;29616;51.950;8.572;2023-02-11T02:10:40;101619.88;;;6.15;100.00
7441;BME280;29616;51.950;8.572;2023-02-11T02:13:11;101641.94;;;6.24;100.00
7441;BME280;29616;51.950;8.572;2023-02-11T02:15:46;101637.13;;;6.29;100.00
7441;BME280;29616;51.950;8.572;2023-02-11T02:18:32;101621.09;;;6.09;100.00
7441;BME280;29616;51.950;8.572;2023-02-11T02:21:28;101644.53;;;6.26;100.00
7441;BME280;29616;51.950;8.572;2023-02-11T02:24:36;101627.81;;;6.18;100.00
7441;BME280;29616;51.950;8.572;2023-02-11T02:27:36;101615.50;;;6.28;100.00
7441;BME280;29616;51.950;8.572;2023-02-11T02:30:30;101641.22;;;6.36;100.00
7441;BME280;29616;51.950;8.572;2023-02-11T02:33:29;101626.00;;;6.18;100.00
7441;BME280;29616;51.950;8.572;2023-02-11T02:36:08;101622.81;;;6.26;100.00
7441;BME280;29616;51.950;8.572;2023-02-11T02:38:46;101620.91;;;6.28;100.00
7441;BME280;29616;51.950;8.572;2023-02-11T02:41:19;101607.88;;;6.19;100.00
7441;BME280;29616;51.950;8.572;2023-02-11T02:43:50;101614.44;;;6.30;100.00
7441;BME280;29616;51.950;8.572;2023-02-11T02:46:23;101611.97;;;6.26;100.00
7441;BME280;29616;51.950;8.572;2023-02-11T02:48:54;101598.84;;;6.18;100.00
7441;BME280;29616;51.950;8.572;2023-02-11T02:51:56;101602.59;;;6.31;100.00
7441;BME280;29616;51.950;8.572;2023-02-11T02:54:56;101597.25;;;6.30;100.00
7441;BME280;29616;51.950;8.572;2023-02-11T02:57:32;101613.22;;;6.36;100.00
7441;BME280;29616;51.950;8.572;2023-02-11T03:00:14;101612.53;;;6.17;100.00
7441;BME280;29616;51.950;8.572;2023-02-11T03:02:57;101597.72;;;6.22;100.00
7441;BME280;29616;51.950;8.572;2023-02-11T03:05:46;101596.06;;;6.20;100.00
7441;BME280;29616;51.950;8.572;2023-02-11T03:08:26;101600.94;;;6.29;100.00
7441;BME280;29616;51.950;8.572;2023-02-11T03:11:00;101613.56;;;6.30;100.00
7441;BME280;29616;51.950;8.572;2023-02-11T03:13:33;101604.63;;;6.28;100.00
7441;BME280;29616;51.950;8.572;2023-02-11T03:16:08;101593.78;;;6.12;100.00
7441;BME280;29616;51.950;8.572;2023-02-11T03:18:43;101616.56;;;6.25;100.00
7441;BME280;29616;51.950;8.572;2023-02-11T03:21:19;101616.72;;;6.22;100.00
7441;BME280;29616;51.950;8.572;2023-02-11T03:23:52;101612.84;;;6.26;100.00
7441;BME280;29616;51.950;8.572;2023-02-11T03:26:29;101618.09;;;6.29;100.00
7441;BME280;29616;51.950;8.572;2023-02-11T03:29:03;101599.97;;;6.30;100.00
7441;BME280;29616;51.950;8.572;2023-02-11T03:31:40;101591.06;;;6.28;100.00
7441;BME280;29616;51.950;8.572;2023-02-11T03:34:17;101583.75;;;6.28;100.00
7441;BME280;29616;51.950;8.572;2023-02-11T03:36:53;101588.50;;;6.25;100.00
7441;BME280;29616;51.950;8.572;2023-02-11T03:39:31;101591.72;;;6.31;100.00
7441;BME280;29616;51.950;8.572;2023-02-11T03:42:02;101595.94;;;6.37;100.00
7441;BME280;29616;51.950;8.572;2023-02-11T03:44:36;101568.63;;;6.24;100.00
7441;BME280;29616;51.950;8.572;2023-02-11T03:47:10;101582.91;;;6.28;100.00
7441;BME280;29616;51.950;8.572;2023-02-11T03:49:41;101579.22;;;6.29;100.00
7441;BME280;29616;51.950;8.572;2023-02-11T03:52:14;101577.66;;;6.25;100.00
7441;BME280;29616;51.950;8.572;2023-02-11T03:54:45;101577.28;;;6.31;100.00
7441;BME280;29616;51.950;8.572;2023-02-11T03:57:17;101586.47;;;6.28;100.00
7441;BME280;29616;51.950;8.572;2023-02-11T03:59:55;101541.56;;;6.07;100.00
7441;BME280;29616;51.950;8.572;2023-02-11T04:02:26;101580.53;;;6.22;100.00
7441;BME280;29616;51.950;8.572;2023-02-11T04:04:57;101595.78;;;6.24;100.00
7441;BME280;29616;51.950;8.572;2023-02-11T04:07:27;101595.00;;;6.22;100.00
7441;BME280;29616;51.950;8.572;2023-02-11T04:09:55;101598.50;;;6.24;100.00
7441;BME280;29616;51.950;8.572;2023-02-11T04:12:24;101571.66;;;6.04;100.00
7441;BME280;29616;51.950;8.572;2023-02-11T04:14:54;101584.50;;;6.16;100.00
7441;BME280;29616;51.950;8.572;2023-02-11T04:17:22;101584.22;;;6.21;100.00
7441;BME280;29616;51.950;8.572;2023-02-11T04:19:51;101589.00;;;6.31;100.00
7441;BME280;29616;51.950;8.572;2023-02-11T04:22:19;101582.81;;;6.29;100.00
7441;BME280;29616;51.950;8.572;2023-02-11T04:24:50;101582.19;;;6.24;100.00
7441;BME280;29616;51.950;8.572;2023-02-11T04:27:20;101574.56;;;6.31;100.00
7441;BME280;29616;51.950;8.572;2023-02-11T04:29:49;101587.19;;;6.32;100.00
7441;BME280;29616;51.950;8.572;2023-02-11T04:32:19;101578.84;;;6.35;100.00
7441;BME280;29616;51.950;8.572;2023-02-11T04:34:49;101570.78;;;6.49;100.00
7441;BME280;29616;51.950;8.572;2023-02-11T04:37:17;101574.97;;;6.39;100.00
7441;BME280;29616;51.950;8.572;2023-02-11T04:39:49;101559.94;;;6.33;100.00
7441;BME280;29616;51.950;8.572;2023-02-11T04:42:18;101577.06;;;6.49;100.00
7441;BME280;29616;51.950;8.572;2023-02-11T04:44:47;101569.38;;;6.42;100.00
7441;BME280;29616;51.950;8.572;2023-02-11T04:47:15;101564.53;;;6.47;100.00
7441;BME280;29616;51.950;8.572;2023-02-11T04:49:44;101576.22;;;6.49;100.00
7441;BME280;29616;51.950;8.572;2023-02-11T04:52:13;101573.38;;;6.50;100.00
7441;BME280;29616;51.950;8.572;2023-02-11T04:54:41;101563.88;;;6.57;100.00
7441;BME280;29616;51.950;8.572;2023-02-11T04:57:11;101566.81;;;6.54;100.00
7441;BME280;29616;51.950;8.572;2023-02-11T04:59:39;101542.22;;;6.42;100.00
7441;BME280;29616;51.950;8.572;2023-02-11T05:02:08;101571.09;;;6.58;100.00
7441;BME280;29616;51.950;8.572;2023-02-11T05:04:38;101574.75;;;6.57;100.00
7441;BME280;29616;51.950;8.572;2023-02-11T05:07:06;101576.53;;;6.58;100.00
7441;BME280;29616;51.950;8.572;2023-02-11T05:09:34;101595.84;;;6.68;100.00
7441;BME280;29616;51.950;8.572;2023-02-11T05:12:05;101594.00;;;6.68;100.00
7441;BME280;29616;51.950;8.572;2023-02-11T05:14:35;101593.75;;;6.73;100.00
7441;BME280;29616;51.950;8.572;2023-02-11T05:17:04;101574.09;;;6.54;100.00
7441;BME280;29616;51.950;8.572;2023-02-11T05:19:33;101589.63;;;6.66;100.00
7441;BME280;29616;51.950;8.572;2023-02-11T05:22:01;101584.31;;;6.64;100.00
7441;BME280;29616;51.950;8.572;2023-02-11T05:24:31;101584.19;;;6.66;100.00
7441;BME280;29616;51.950;8.572;2023-02-11T05:27:01;101567.41;;;6.59;100.00
7441;BME280;29616;51.950;8.572;2023-02-11T05:29:30;101578.75;;;6.66;100.00
7441;BME280;29616;51.950;8.572;2023-02-11T05:32:02;101585.38;;;6.62;100.00
7441;BME280;29616;51.950;8.572;2023-02-11T05:34:32;101578.75;;;6.66;100.00
7441;BME280;29616;51.950;8.572;2023-02-11T05:37:01;101585.59;;;6.73;100.00
7441;BME280;29616;51.950;8.572;2023-02-11T05:39:29;101582.25;;;6.68;100.00
7441;BME280;29616;51.950;8.572;2023-02-11T05:41:57;101582.66;;;6.62;100.00
7441;BME280;29616;51.950;8.572;2023-02-11T05:44:26;101580.72;;;6.64;100.00
7441;BME280;29616;51.950;8.572;2023-02-11T05:46:55;101581.25;;;6.55;100.00
7441;BME280;29616;51.950;8.572;2023-02-11T05:49:26;101555.66;;;6.59;100.00
7441;BME280;29616;51.950;8.572;2023-02-11T05:51:54;101583.06;;;6.70;100.00
7441;BME280;29616;51.950;8.572;2023-02-11T05:54:23;101581.31;;;6.69;100.00
7441;BME280;29616;51.950;8.572;2023-02-11T05:56:53;101573.06;;;6.70;100.00
7441;BME280;29616;51.950;8.572;2023-02-11T05:59:21;101559.84;;;6.64;100.00
7441;BME280;29616;51.950;8.572;2023-02-11T06:01:51;101575.78;;;6.70;100.00
7441;BME280;29616;51.950;8.572;2023-02-11T06:04:20;101578.75;;;6.66;100.00
7441;BME280;29616;51.950;8.572;2023-02-11T06:06:52;101579.22;;;6.58;100.00
7441;BME280;29616;51.950;8.572;2023-02-11T06:09:21;101585.19;;;6.65;100.00
7441;BME280;29616;51.950;8.572;2023-02-11T06:11:51;101564.59;;;6.61;100.00
7441;BME280;29616;51.950;8.572;2023-02-11T06:14:20;101572.56;;;6.64;100.00
7441;BME280;29616;51.950;8.572;2023-02-11T06:16:48;101588.41;;;6.71;100.00
7441;BME280;29616;51.950;8.572;2023-02-11T06:19:16;101581.31;;;6.69;100.00
7441;BME280;29616;51.950;8.572;2023-02-11T06:21:46;101584.59;;;6.60;100.00
7441;BME280;29616;51.950;8.572;2023-02-11T06:24:17;101586.38;;;6.75;100.00
7441;BME280;29616;51.950;8.572;2023-02-11T06:27:06;101581.81;;;6.76;100.00
7441;BME280;29616;51.950;8.572;2023-02-11T06:29:34;101585.38;;;6.76;100.00
7441;BME280;29616;51.950;8.572;2023-02-11T06:32:03;101591.13;;;6.71;100.00
7441;BME280;29616;51.950;8.572;2023-02-11T06:34:32;101595.84;;;6.68;100.00
7441;BME280;29616;51.950;8.572;2023-02-11T06:37:02;101597.31;;;6.73;100.00
7441;BME280;29616;51.950;8.572;2023-02-11T06:39:33;101586.16;;;6.64;100.00
7441;BME280;29616;51.950;8.572;2023-02-11T06:42:03;101611.91;;;6.72;100.00
7441;BME280;29616;51.950;8.572;2023-02-11T06:44:34;101588.09;;;6.62;100.00
7441;BME280;29616;51.950;8.572;2023-02-11T06:47:04;101613.13;;;6.67;100.00
7441;BME280;29616;51.950;8.572;2023-02-11T06:49:32;101607.13;;;6.76;100.00
7441;BME280;29616;51.950;8.572;2023-02-11T06:52:03;101613.84;;;6.70;100.00
7441;BME280;29616;51.950;8.572;2023-02-11T06:54:32;101625.56;;;6.71;100.00
7441;BME280;29616;51.950;8.572;2023-02-11T06:57:02;101627.31;;;6.72;100.00
7441;BME280;29616;51.950;8.572;2023-02-11T06:59:31;101630.13;;;6.70;100.00
7441;BME280;29616;51.950;8.572;2023-02-11T07:02:04;101610.00;;;6.59;100.00
7441;BME280;29616;51.950;8.572;2023-02-11T07:04:32;101619.56;;;6.80;100.00
7441;BME280;29616;51.950;8.572;2023-02-11T07:07:00;101627.13;;;6.75;100.00
7441;BME280;29616;51.950;8.572;2023-02-11T07:09:30;101597.59;;;6.69;100.00
7441;BME280;29616;51.950;8.572;2023-02-11T07:12:01;101630.63;;;6.77;100.00
7441;BME280;29616;51.950;8.572;2023-02-11T07:14:29;101624.91;;;6.82;100.00
7441;BME280;29616;51.950;8.572;2023-02-11T07:16:58;101623.13;;;6.66;100.00
7441;BME280;29616;51.950;8.572;2023-02-11T07:19:27;101622.59;;;6.76;100.00
7441;BME280;29616;51.950;8.572;2023-02-11T07:21:57;101614.63;;;6.87;100.00
7441;BME280;29616;51.950;8.572;2023-02-11T07:24:26;101612.78;;;6.73;100.00
7441;BME280;29616;51.950;8.572;2023-02-11T07:26:56;101611.59;;;6.77;100.00
7441;BME280;29616;51.950;8.572;2023-02-11T07:29:27;101609.19;;;6.87;100.00
7441;BME280;29616;51.950;8.572;2023-02-11T07:31:55;101623.66;;;6.73;100.00
7441;BME280;29616;51.950;8.572;2023-02-11T07:34:24;101623.00;;;6.84;100.00
7441;BME280;29616;51.950;8.572;2023-02-11T07:36:55;101627.63;;;6.82;100.00
7441;BME280;29616;51.950;8.572;2023-02-11T07:39:23;101623.66;;;6.87;100.00
7441;BME280;29616;51.950;8.572;2023-02-11T07:41:56;101631.03;;;6.85;100.00
7441;BME280;29616;51.950;8.572;2023-02-11T07:44:26;101644.44;;;6.88;100.00
7441;BME280;29616;51.950;8.572;2023-02-11T07:46:55;101649.16;;;6.70;100.00
7441;BME280;29616;51.950;8.572;2023-02-11T07:49:25;101640.44;;;6.80;100.00
7441;BME280;29616;51.950;8.572;2023-02-11T07:51:54;101646.81;;;6.79;100.00
7441;BME280;29616;51.950;8.572;2023-02-11T07:54:24;101640.78;;;6.89;100.00
7441;BME280;29616;51.950;8.572;2023-02-11T07:56:55;101637.44;;;6.84;100.00
7441;BME280;29616;51.950;8.572;2023-02-11T07:59:25;101629.63;;;6.94;100.00
7441;BME280;29616;51.950;8.572;2023-02-11T08:01:55;101628.69;;;6.79;100.00
7441;BME280;29616;51.950;8.572;2023-02-11T08:04:23;101639.56;;;6.79;100.00
7441;BME280;29616;51.950;8.572;2023-02-11T08:06:54;101631.03;;;6.85;100.00
7441;BME280;29616;51.950;8.572;2023-02-11T08:09:25;101605.41;;;6.75;100.00
7441;BME280;29616;51.950;8.572;2023-02-11T08:11:54;101623.00;;;6.68;100.00
7441;BME280;29616;51.950;8.572;2023-02-11T08:14:23;101640.44;;;6.80;100.00
7441;BME280;29616;51.950;8.572;2023-02-11T08:16:56;101657.16;;;6.88;100.00
7441;BME280;29616;51.950;8.572;2023-02-11T08:19:26;101646.94;;;6.77;100.00
7441;BME280;29616;51.950;8.572;2023-02-11T08:21:57;101648.94;;;6.73;100.00
7441;BME280;29616;51.950;8.572;2023-02-11T08:24:28;101663.84;;;6.82;100.00
7441;BME280;29616;51.950;8.572;2023-02-11T08:26:59;101665.00;;;6.78;100.00
7441;BME280;29616;51.950;8.572;2023-02-11T08:29:27;101665.84;;;6.79;100.00
7441;BME280;29616;51.950;8.572;2023-02-11T08:32:00;101668.31;;;6.83;100.00
7441;BME280;29616;51.950;8.572;2023-02-11T08:34:29;101667.13;;;6.73;100.00
7441;BME280;29616;51.950;8.572;2023-02-11T08:36:59;101672.50;;;6.89;100.00
7441;BME280;29616;51.950;8.572;2023-02-11T08:39:27;101660.75;;;6.88;100.00
7441;BME280;29616;51.950;8.572;2023-02-11T08:41:56;101658.59;;;6.79;100.00
7441;BME280;29616;51.950;8.572;2023-02-11T08:44:24;101662.69;;;6.86;100.00
7441;BME280;29616;51.950;8.572;2023-02-11T08:46:53;101669.50;;;6.93;100.00
7441;BME280;29616;51.950;8.572;2023-02-11T08:49:23;101658.34;;;6.84;100.00
7441;BME280;29616;51.950;8.572;2023-02-11T08:51:53;101645.88;;;6.80;100.00
7441;BME280;29616;51.950;8.572;2023-02-11T08:54:23;101669.50;;;6.93;100.00
7441;BME280;29616;51.950;8.572;2023-02-11T08:56:53;101668.34;;;6.97;100.00
7441;BME280;29616;51.950;8.572;2023-02-11T08:59:21;101645.22;;;6.90;100.00
7441;BME280;29616;51.950;8.572;2023-02-11T09:01:52;101662.47;;;7.19;100.00
7441;BME280;29616;51.950;8.572;2023-02-11T09:04:20;101646.88;;;6.93;100.00
7441;BME280;29616;51.950;8.572;2023-02-11T09:06:49;101674.41;;;7.02;100.00
7441;BME280;29616;51.950;8.572;2023-02-11T09:09:19;101670.16;;;7.12;100.00
7441;BME280;29616;51.950;8.572;2023-02-11T09:11:47;101666.56;;;6.82;100.00
7441;BME280;29616;51.950;8.572;2023-02-11T09:14:20;101682.75;;;6.99;100.00
7441;BME280;29616;51.950;8.572;2023-02-11T09:16:51;101683.16;;;7.07;100.00
7441;BME280;29616;51.950;8.572;2023-02-11T09:19:21;101690.50;;;7.05;100.00
7441;BME280;29616;51.950;8.572;2023-02-11T09:21:53;101684.03;;;7.08;100.00
7441;BME280;29616;51.950;8.572;2023-02-11T09:24:21;101678.09;;;7.01;100.00
7441;BME280;29616;51.950;8.572;2023-02-11T09:26:52;101682.56;;;7.16;100.00
7441;BME280;29616;51.950;8.572;2023-02-11T09:29:22;101690.50;;;7.05;100.00
7441;BME280;29616;51.950;8.572;2023-02-11T09:31:52;101697.72;;;7.06;100.00
7441;BME280;29616;51.950;8.572;2023-02-11T09:34:21;101702.50;;;7.17;100.00
7441;BME280;29616;51.950;8.572;2023-02-11T09:36:53;101698.53;;;7.22;100.00
7441;BME280;29616;51.950;8.572;2023-02-11T09:39:21;101723.34;;;7.02;100.00
7441;BME280;29616;51.950;8.572;2023-02-11T09:42:37;101712.78;;;7.12;100.00
7441;BME280;29616;51.950;8.572;2023-02-11T09:45:14;101725.03;;;7.19;100.00
7441;BME280;29616;51.950;8.572;2023-02-11T09:47:50;101728.09;;;7.28;100.00
7441;BME280;29616;51.950;8.572;2023-02-11T09:50:27;101690.03;;;6.99;100.00
7441;BME280;29616;51.950;8.572;2023-02-11T09:53:02;101725.13;;;7.17;100.00
7441;BME280;29616;51.950;8.572;2023-02-11T09:55:35;101727.28;;;7.26;100.00
7441;BME280;29616;51.950;8.572;2023-02-11T09:58:12;101726.97;;;7.17;100.00
7441;BME280;29616;51.950;8.572;2023-02-11T10:00:45;101729.00;;;7.13;100.00
7441;BME280;29616;51.950;8.572;2023-02-11T10:03:34;101728.97;;;7.29;100.00
7441;BME280;29616;51.950;8.572;2023-02-11T10:06:34;101732.53;;;7.29;100.00
7441;BME280;29616;51.950;8.572;2023-02-11T10:09:24;101724.66;;;7.25;100.00
7441;BME280;29616;51.950;8.572;2023-02-11T10:12:10;101707.75;;;7.20;100.00
7441;BME280;29616;51.950;8.572;2023-02-11T10:14:54;101728.84;;;7.30;100.00
7441;BME280;29616;51.950;8.572;2023-02-11T10:17:37;101727.16;;;7.44;100.00
7441;BME280;29616;51.950;8.572;2023-02-11T10:20:20;101717.69;;;7.21;100.00
7441;BME280;29616;51.950;8.572;2023-02-11T10:22:53;101748.53;;;7.20;100.00
7441;BME280;29616;51.950;8.572;2023-02-11T10:25:29;101743.75;;;7.39;100.00
7441;BME280;29616;51.950;8.572;2023-02-11T10:28:11;101733.75;;;7.40;100.00
7441;BME280;29616;51.950;8.572;2023-02-11T10:30:44;101755.53;;;7.40;100.00
7441;BME280;29616;51.950;8.572;2023-02-11T10:33:24;101737.63;;;7.36;100.00
7441;BME280;29616;51.950;8.572;2023-02-11T10:35:54;101777.03;;;7.28;100.00
7441;BME280;29616;51.950;8.572;2023-02-11T10:38:24;101778.69;;;7.31;100.00
7441;BME280;29616;51.950;8.572;2023-02-11T10:40:54;101757.91;;;7.30;100.00
7441;BME280;29616;51.950;8.572;2023-02-11T10:43:27;101768.78;;;7.30;100.00
7441;BME280;29616;51.950;8.572;2023-02-11T10:45:56;101767.47;;;7.37;100.00
7441;BME280;29616;51.950;8.572;2023-02-11T10:48:39;101749.38;;;7.36;100.00
7441;BME280;29616;51.950;8.572;2023-02-11T10:51:19;101764.44;;;7.42;100.00
7441;BME280;29616;51.950;8.572;2023-02-11T10:54:08;101766.09;;;7.44;100.00
7441;BME280;29616;51.950;8.572;2023-02-11T10:56:45;101750.81;;;7.27;100.00
7441;BME280;29616;51.950;8.572;2023-02-11T10:59:24;101750.34;;;7.35;100.00
7441;BME280;29616;51.950;8.572;2023-02-11T11:01:58;101770.66;;;7.44;100.00
7441;BME280;29616;51.950;8.572;2023-02-11T11:04:38;101770.25;;;7.36;100.00
7441;BME280;29616;51.950;8.572;2023-02-11T11:07:19;101754.34;;;7.44;100.00
7441;BME280;29616;51.950;8.572;2023-02-11T11:09:52;101746.78;;;7.49;100.00
7441;BME280;29616;51.950;8.572;2023-02-11T11:12:32;101739.91;;;7.27;100.00
7441;BME280;29616;51.950;8.572;2023-02-11T11:15:16;101742.34;;;7.32;100.00
7441;BME280;29616;51.950;8.572;2023-02-11T11:17:46;101758.84;;;7.45;100.00
7441;BME280;29616;51.950;8.572;2023-02-11T11:20:24;101753.22;;;7.32;100.00
7441;BME280;29616;51.950;8.572;2023-02-11T11:23:10;101750.25;;;7.37;100.00
7441;BME280;29616;51.950;8.572;2023-02-11T11:25:45;101748.78;;;7.31;100.00
7441;BME280;29616;51.950;8.572;2023-02-11T11:28:30;101730.03;;;7.41;100.00
7441;BME280;29616;51.950;8.572;2023-02-11T11:31:03;101743.50;;;7.58;100.00
7441;BME280;29616;51.950;8.572;2023-02-11T11:33:33;101741.16;;;7.52;100.00
7441;BME280;29616;51.950;8.572;2023-02-11T11:36:05;101728.22;;;7.41;100.00
7441;BME280;29616;51.950;8.572;2023-02-11T11:38:43;101741.44;;;7.47;100.00
7441;BME280;29616;51.950;8.572;2023-02-11T11:41:22;101733.94;;;7.51;100.00
7441;BME280;29616;51.950;8.572;2023-02-11T11:44:00;101755.94;;;7.62;100.00
7441;BME280;29616;51.950;8.572;2023-02-11T11:46:33;101739.44;;;7.65;100.00
7441;BME280;29616;51.950;8.572;2023-02-11T11:49:21;101741.19;;;7.66;100.00
7441;BME280;29616;51.950;8.572;2023-02-11T11:52:00;101749.34;;;7.80;100.00
7441;BME280;29616;51.950;8.572;2023-02-11T11:54:33;101740.59;;;7.75;100.00
7441;BME280;29616;51.950;8.572;2023-02-11T11:57:11;101753.25;;;7.76;100.00
7441;BME280;29616;51.950;8.572;2023-02-11T11:59:44;101708.78;;;7.47;100.00
7441;BME280;29616;51.950;8.572;2023-02-11T12:02:45;101741.41;;;7.77;100.00
7441;BME280;29616;51.950;8.572;2023-02-11T12:05:25;101734.41;;;7.87;100.00
7441;BME280;29616;51.950;8.572;2023-02-11T12:08:09;101723.78;;;7.68;100.00
7441;BME280;29616;51.950;8.572;2023-02-11T12:10:54;101746.47;;;7.97;100.00
7441;BME280;29616;51.950;8.572;2023-02-11T12:13:41;101736.91;;;7.76;100.00
7441;BME280;29616;51.950;8.572;2023-02-11T12:16:23;101731.88;;;7.84;100.00
7441;BME280;29616;51.950;8.572;2023-02-11T12:22:34;101738.28;;;8.11;100.00
7441;BME280;29616;51.950;8.572;2023-02-11T12:25:19;101729.06;;;8.00;100.00
7441;BME280;29616;51.950;8.572;2023-02-11T12:28:02;101747.41;;;7.96;100.00
7441;BME280;29616;51.950;8.572;2023-02-11T12:30:48;101737.72;;;8.34;100.00
7441;BME280;29616;51.950;8.572;2023-02-11T12:33:39;101740.69;;;8.58;100.00
7441;BME280;29616;51.950;8.572;2023-02-11T12:36:20;101736.91;;;8.46;100.00
7441;BME280;29616;51.950;8.572;2023-02-11T12:39:09;101722.13;;;8.36;100.00
7441;BME280;29616;51.950;8.572;2023-02-11T12:45:20;101731.31;;;8.35;100.00
7441;BME280;29616;51.950;8.572;2023-02-11T12:48:05;101730.00;;;8.41;100.00
7441;BME280;29616;51.950;8.572;2023-02-11T12:50:44;101733.22;;;8.33;100.00
7441;BME280;29616;51.950;8.572;2023-02-11T12:53:39;101707.41;;;8.53;100.00
7441;BME280;29616;51.950;8.572;2023-02-11T12:56:16;101723.81;;;8.66;100.00
7441;BME280;29616;51.950;8.572;2023-02-11T12:58:52;101719.19;;;8.53;100.00
7441;BME280;29616;51.950;8.572;2023-02-11T13:01:26;101727.66;;;8.49;100.00
7441;BME280;29616;51.950;8.572;2023-02-11T13:04:05;101713.13;;;8.63;100.00
7441;BME280;29616;51.950;8.572;2023-02-11T13:06:41;101700.06;;;8.68;100.00
7441;BME280;29616;51.950;8.572;2023-02-11T13:09:18;101734.91;;;8.63;100.00
7441;BME280;29616;51.950;8.572;2023-02-11T13:11:50;101728.66;;;8.34;100.00
7441;BME280;29616;51.950;8.572;2023-02-11T13:14:27;101717.03;;;8.59;100.00
7441;BME280;29616;51.950;8.572;2023-02-11T13:16:58;101713.75;;;8.53;100.00
7441;BME280;29616;51.950;8.572;2023-02-11T13:19:33;101693.44;;;8.31;100.00
7441;BME280;29616;51.950;8.572;2023-02-11T13:22:12;101731.28;;;8.76;100.00
7441;BME280;29616;51.950;8.572;2023-02-11T13:24:50;101715.09;;;8.61;100.00
7441;BME280;29616;51.950;8.572;2023-02-11T13:27:31;101728.00;;;8.71;100.00
7441;BME280;29616;51.950;8.572;2023-02-11T13:30:24;101725.88;;;8.89;100.00
7441;BME280;29616;51.950;8.572;2023-02-11T13:36:18;101716.50;;;8.80;100.00
7441;BME280;29616;51.950;8.572;2023-02-11T13:39:03;101711.19;;;8.65;100.00
7441;BME280;29616;51.950;8.572;2023-02-11T13:41:37;101726.00;;;8.87;100.00
7441;BME280;29616;51.950;8.572;2023-02-11T13:44:21;101726.28;;;8.70;100.00
7441;BME280;29616;51.950;8.572;2023-02-11T13:46:56;101722.69;;;8.56;100.00